Honeyville, Utah
Current Conditions -  °F | °C
As of 3:55 AM on Monday 20 Oct 2014 (Local Time) from KBMC Reporting Station
Clear Clear  
Wind Chill: 44°   Ceiling: Unl
Heat Index: 44°   Visibility: 10mi
Dew Point: 36°   Wind: 3mph
Humidity: 72%   Direction: 10°N
Pressure: 30.04"   Gusts: NA
Location:  41.64°N, 112.08°W
Report Text: KBMC 200955Z AUTO 01003KT 10SM CLR 07/02 A3004 RMK AO1 T00680020
Loading
Personal Weather Stations






























Interactive Weather Map
Tropical Storm Tracking
New forecast layout! Learn more

10-Day Weather Forecast

Advertisements
Track Severe Weather on mobile